Time;durP1;ratioP1;P1;durP2;ratioP2;P2;SDS_P1;SDS_P2;PMS_P1;PMS_P2;Temp;Humidity;BMP_temperature;BMP_pressure;BME280_temperature;BME280_humidity;BME280_pressure;Samples;Min_cycle;Max_cycle;Signal;HPM_P1;HPM_P2
2021/03/18 00:03:18;;;;;;;6.97;3.20;;;2.00;99.90;;;;;;6690826;77;20318;-76
2021/03/18 00:13:21;;;;;;;8.32;3.50;;;1.90;99.90;;;;;;6746721;88;20289;-76
2021/03/18 00:23:22;;;;;;;6.55;3.00;;;2.10;99.90;;;;;;6733817;88;20174;-76
2021/03/18 00:33:22;;;;;;;7.97;3.67;;;1.70;99.90;;;;;;6733282;88;20288;-76
2021/03/18 00:43:24;;;;;;;9.65;3.85;;;1.60;99.90;;;;;;6736409;88;20189;-76
2021/03/18 00:53:30;;;;;;;11.10;3.97;;;1.40;99.90;;;;;;6740154;88;20193;-76
2021/03/18 01:03:36;;;;;;;9.77;4.13;;;1.40;99.90;;;;;;6747231;88;20199;-77
2021/03/18 01:13:39;;;;;;;10.97;3.97;;;1.00;99.90;;;;;;6732012;88;20417;-76
2021/03/18 01:23:40;;;;;;;12.85;4.12;;;1.00;99.90;;;;;;6746420;88;20192;-76
2021/03/18 01:33:41;;;;;;;15.27;5.87;;;1.00;99.90;;;;;;6745097;88;21124;-76
2021/03/18 01:43:44;;;;;;;15.35;6.37;;;0.90;99.90;;;;;;6725058;88;20202;-76
2021/03/18 01:53:44;;;;;;;15.65;7.10;;;1.10;99.90;;;;;;6723463;88;20687;-76
2021/03/18 02:03:46;;;;;;;12.82;7.32;;;1.30;99.90;;;;;;6729442;88;20640;-76
2021/03/18 02:13:46;;;;;;;14.18;7.85;;;1.30;99.90;;;;;;6720263;88;20248;-76
2021/03/18 02:24:05;;;;;;;15.73;7.90;;;1.30;99.90;;;;;;6709198;88;20832;-76
2021/03/18 02:34:21;;;;;;;16.10;7.95;;;1.40;99.90;;;;;;6743973;88;20491;-76
2021/03/18 02:44:25;;;;;;;18.75;8.98;;;1.60;99.90;;;;;;6754089;88;20594;-76
2021/03/18 02:54:27;;;;;;;16.92;8.77;;;1.40;99.90;;;;;;6754389;88;20230;-76
2021/03/18 03:04:29;;;;;;;20.45;9.57;;;1.30;99.90;;;;;;6744385;88;20589;-76
2021/03/18 03:14:32;;;;;;;24.25;10.95;;;1.20;99.90;;;;;;6747640;88;20224;-76
2021/03/18 03:24:37;;;;;;;29.58;12.57;;;1.20;99.90;;;;;;6744248;88;20218;-76
2021/03/18 03:34:39;;;;;;;30.92;12.52;;;1.00;99.90;;;;;;6737542;88;20225;-76
2021/03/18 03:44:40;;;;;;;32.00;14.38;;;1.00;99.90;;;;;;6740841;88;21048;-76
2021/03/18 03:54:46;;;;;;;27.67;13.18;;;0.90;99.90;;;;;;6733200;88;20193;-77
2021/03/18 04:04:49;;;;;;;30.95;14.27;;;1.00;99.90;;;;;;6733533;88;20212;-76
2021/03/18 04:14:56;;;;;;;28.75;14.25;;;1.00;99.90;;;;;;6732609;88;20182;-76
2021/03/18 04:24:58;;;;;;;28.42;14.45;;;1.20;99.90;;;;;;6722107;88;20248;-77
2021/03/18 04:34:59;;;;;;;29.30;15.02;;;1.30;99.90;;;;;;6732731;88;20185;-76
2021/03/18 04:45:00;;;;;;;30.02;15.25;;;1.30;99.90;;;;;;6730113;88;20205;-76
2021/03/18 04:55:01;;;;;;;33.45;16.37;;;1.40;99.90;;;;;;6752781;88;20191;-76
2021/03/18 05:05:02;;;;;;;32.80;17.05;;;1.60;99.90;;;;;;6749883;88;21066;-76
2021/03/18 05:15:05;;;;;;;34.13;18.10;;;1.60;99.90;;;;;;6747765;88;20309;-76
2021/03/18 05:25:08;;;;;;;27.83;14.15;;;1.60;99.90;;;;;;6735928;88;20689;-76
2021/03/18 05:35:10;;;;;;;28.75;15.43;;;1.80;99.90;;;;;;6732292;88;20202;-76
2021/03/18 05:45:12;;;;;;;31.80;14.82;;;1.80;99.90;;;;;;6727169;88;20609;-76
2021/03/18 05:55:14;;;;;;;34.83;16.27;;;1.90;99.90;;;;;;6713977;88;20299;-76
2021/03/18 06:15:20;;;;;;;30.33;15.45;;;1.90;99.90;;;;;;6755894;88;20403;-78
2021/03/18 06:25:29;;;;;;;28.70;15.10;;;2.30;99.90;;;;;;6756813;88;20182;-77
2021/03/18 06:35:30;;;;;;;30.12;15.30;;;2.40;99.90;;;;;;6752179;88;20923;-77
2021/03/18 06:45:36;;;;;;;30.55;16.10;;;2.20;99.90;;;;;;6750341;88;20214;-78
2021/03/18 06:55:36;;;;;;;37.50;18.33;;;2.20;99.90;;;;;;6754204;88;20177;-77
2021/03/18 07:05:42;;;;;;;35.37;17.27;;;2.30;99.90;;;;;;6753745;88;20534;-77
2021/03/18 07:15:43;;;;;;;37.53;18.00;;;2.50;99.90;;;;;;6746467;88;20560;-77
2021/03/18 07:25:47;;;;;;;35.10;16.75;;;2.40;99.90;;;;;;6749694;88;20235;-78
2021/03/18 07:35:48;;;;;;;39.38;17.37;;;2.60;99.90;;;;;;6747057;88;20352;-77
2021/03/18 07:45:48;;;;;;;43.17;19.73;;;2.80;99.90;;;;;;6745115;88;20239;-76
2021/03/18 07:55:51;;;;;;;47.22;20.95;;;2.80;99.90;;;;;;6739434;88;20192;-76
2021/03/18 08:05:52;;;;;;;44.45;21.10;;;2.90;99.90;;;;;;6739202;88;20251;-76
2021/03/18 08:15:52;;;;;;;38.50;18.87;;;3.00;99.90;;;;;;6734194;88;20196;-74
2021/03/18 08:25:54;;;;;;;42.92;21.58;;;3.30;99.90;;;;;;6736448;88;20524;-75
2021/03/18 08:36:25;;;;;;;44.08;20.73;;;3.40;99.90;;;;;;6741427;88;20514;-76
2021/03/18 08:46:43;;;;;;;43.95;21.10;;;3.50;99.90;;;;;;6743640;88;20193;-76
2021/03/18 08:56:43;;;;;;;44.67;20.12;;;3.70;99.90;;;;;;6741619;88;20256;-76
2021/03/18 09:06:48;;;;;;;42.75;19.15;;;3.90;99.90;;;;;;6743715;88;20218;-78
2021/03/18 09:16:49;;;;;;;47.17;21.00;;;4.20;99.90;;;;;;6740864;88;20256;-77
2021/03/18 09:27:02;;;;;;;46.60;20.15;;;4.20;99.90;;;;;;6740781;88;20314;-76
2021/03/18 09:37:03;;;;;;;47.95;21.30;;;4.40;99.90;;;;;;6744930;88;20196;-77
2021/03/18 09:47:06;;;;;;;47.53;21.10;;;4.40;99.90;;;;;;6739454;88;20208;-78
2021/03/18 09:57:09;;;;;;;55.50;24.40;;;4.60;99.90;;;;;;6740058;88;20202;-77
2021/03/18 10:07:11;;;;;;;66.82;27.45;;;4.90;99.90;;;;;;6734906;88;20198;-77
2021/03/18 10:17:18;;;;;;;60.70;25.77;;;5.10;99.90;;;;;;6732703;88;20311;-79
2021/03/18 10:27:20;;;;;;;61.55;27.37;;;5.60;99.90;;;;;;6742000;88;20220;-79
2021/03/18 10:37:32;;;;;;;51.72;25.80;;;5.50;99.90;;;;;;6735251;88;20248;-79
2021/03/18 10:47:40;;;;;;;55.63;25.40;;;5.80;99.90;;;;;;6722026;88;20266;-77
2021/03/18 10:57:41;;;;;;;51.25;24.42;;;5.80;99.90;;;;;;6728828;88;20923;-78
2021/03/18 11:07:41;;;;;;;52.05;22.15;;;6.40;99.90;;;;;;6738562;88;20204;-77
2021/03/18 11:17:42;;;;;;;41.40;19.92;;;7.10;99.90;;;;;;6737944;88;20675;-78
2021/03/18 11:27:51;;;;;;;29.83;15.15;;;7.60;99.90;;;;;;6738587;88;20209;-78
2021/03/18 11:37:51;;;;;;;27.08;13.23;;;9.00;99.90;;;;;;6739634;88;20204;-78
2021/03/18 11:47:52;;;;;;;29.45;14.18;;;8.30;99.90;;;;;;6738654;88;20209;-77
2021/03/18 11:57:59;;;;;;;23.48;11.27;;;9.20;99.90;;;;;;6730168;88;20188;-79
2021/03/18 12:07:59;;;;;;;23.77;11.85;;;9.00;99.90;;;;;;6738431;88;20221;-77
2021/03/18 12:18:01;;;;;;;18.10;9.00;;;9.50;99.90;;;;;;6737422;88;20290;-78
2021/03/18 12:28:02;;;;;;;17.48;8.77;;;10.00;99.90;;;;;;6730570;88;20418;-78
2021/03/18 12:38:03;;;;;;;28.48;13.68;;;9.90;99.90;;;;;;6738663;88;20201;-78
2021/03/18 12:48:04;;;;;;;24.73;12.40;;;9.70;99.90;;;;;;6740823;88;20189;-78
2021/03/18 12:58:04;;;;;;;17.48;6.62;;;9.60;99.90;;;;;;6739791;88;20318;-78
2021/03/18 13:08:06;;;;;;;5.87;2.90;;;9.00;99.90;;;;;;6738845;88;20208;-77
2021/03/18 13:18:06;;;;;;;9.55;3.55;;;9.10;99.90;;;;;;6724922;88;20191;-78
2021/03/18 13:28:08;;;;;;;9.88;2.85;;;9.90;99.90;;;;;;6730717;88;20264;-79
2021/03/18 13:38:10;;;;;;;9.75;3.70;;;9.10;99.70;;;;;;6731078;88;20227;-81
2021/03/18 13:48:13;;;;;;;7.50;3.75;;;8.20;99.90;;;;;;6748388;88;20397;-82
2021/03/18 13:58:14;;;;;;;10.93;2.67;;;8.60;99.90;;;;;;6719376;88;20222;-81
2021/03/18 14:08:14;;;;;;;6.03;2.03;;;8.70;99.90;;;;;;6719866;88;20280;-81
2021/03/18 14:18:16;;;;;;;4.82;1.70;;;8.60;98.60;;;;;;6746948;88;20231;-82
2021/03/18 14:28:17;;;;;;;8.77;2.42;;;8.20;98.50;;;;;;6758187;88;21025;-81
2021/03/18 14:38:17;;;;;;;11.18;3.33;;;8.00;99.90;;;;;;6748874;88;20212;-79
2021/03/18 14:48:18;;;;;;;8.80;2.90;;;7.90;99.90;;;;;;6747821;88;20266;-80
2021/03/18 14:58:21;;;;;;;7.62;3.87;;;7.30;99.90;;;;;;6747730;88;20409;-79
2021/03/18 15:08:21;;;;;;;11.45;4.03;;;7.30;99.90;;;;;;6736119;88;20638;-78
2021/03/18 15:18:22;;;;;;;9.60;4.32;;;7.00;99.90;;;;;;6738960;88;20196;-78
2021/03/18 15:28:23;;;;;;;10.63;3.30;;;7.20;99.90;;;;;;6737372;88;20235;-78
2021/03/18 15:38:24;;;;;;;9.37;3.53;;;7.30;99.90;;;;;;6741016;88;20919;-76
2021/03/18 15:48:25;;;;;;;9.05;3.53;;;7.10;99.90;;;;;;6740910;88;20557;-78
2021/03/18 15:58:25;;;;;;;6.80;2.03;;;6.90;99.90;;;;;;6742166;88;20197;-78
2021/03/18 16:08:26;;;;;;;4.63;1.80;;;6.80;99.90;;;;;;6730228;88;20225;-79
2021/03/18 16:18:27;;;;;;;7.40;2.53;;;6.70;99.90;;;;;;6739276;88;21055;-76
2021/03/18 16:28:27;;;;;;;5.32;2.42;;;6.50;99.90;;;;;;6737032;88;20520;-79
2021/03/18 16:38:28;;;;;;;7.57;2.53;;;6.60;99.90;;;;;;6737443;88;20184;-78
2021/03/18 16:48:29;;;;;;;10.03;2.70;;;6.40;99.90;;;;;;6737732;88;20225;-78
2021/03/18 16:58:30;;;;;;;8.88;3.37;;;6.20;99.90;;;;;;6722351;88;20555;-78
2021/03/18 17:08:30;;;;;;;9.02;3.03;;;6.20;99.90;;;;;;6721681;88;20685;-77
2021/03/18 17:18:31;;;;;;;9.70;3.65;;;6.10;99.90;;;;;;6722596;88;20194;-78
2021/03/18 17:28:33;;;;;;;10.05;3.40;;;6.00;99.90;;;;;;6723182;88;20572;-78
2021/03/18 17:38:34;;;;;;;9.15;3.50;;;5.80;99.90;;;;;;6718627;88;20202;-80
2021/03/18 17:48:38;;;;;;;9.57;3.67;;;5.80;99.90;;;;;;6722980;88;20669;-78
2021/03/18 17:58:38;;;;;;;9.95;3.50;;;5.80;99.90;;;;;;6731619;88;20168;-79
2021/03/18 18:08:39;;;;;;;9.67;3.27;;;5.80;99.90;;;;;;6751086;88;20784;-79
2021/03/18 18:18:40;;;;;;;10.80;3.28;;;5.70;99.90;;;;;;6734656;88;20641;-80
2021/03/18 18:28:41;;;;;;;11.52;3.50;;;5.80;99.90;;;;;;6733789;88;20203;-79
2021/03/18 18:38:41;;;;;;;5.85;3.35;;;5.70;99.90;;;;;;6722672;88;20227;-77
2021/03/18 18:48:42;;;;;;;10.63;3.95;;;5.70;99.90;;;;;;6720700;88;20790;-78
2021/03/18 18:58:43;;;;;;;10.02;4.20;;;5.80;99.90;;;;;;6725278;88;20315;-77
2021/03/18 19:08:43;;;;;;;11.40;5.18;;;5.60;99.90;;;;;;6724918;88;20188;-78
2021/03/18 19:18:44;;;;;;;11.73;4.90;;;5.50;99.90;;;;;;6730499;88;20238;-80
2021/03/18 19:28:44;;;;;;;13.18;5.80;;;5.10;99.90;;;;;;6730890;88;20266;-80
2021/03/18 19:38:45;;;;;;;19.90;6.93;;;5.10;99.90;;;;;;6729405;88;20200;-80
2021/03/18 19:48:46;;;;;;;13.73;6.78;;;4.90;99.90;;;;;;6732494;88;20645;-79
2021/03/18 19:58:46;;;;;;;18.40;7.32;;;5.00;99.90;;;;;;6728437;88;20206;-78
2021/03/18 20:08:47;;;;;;;14.05;6.80;;;5.00;99.90;;;;;;6734683;88;20532;-79
2021/03/18 20:18:48;;;;;;;23.80;9.68;;;4.80;99.90;;;;;;6734318;88;20188;-79
2021/03/18 20:28:49;;;;;;;24.15;9.60;;;4.50;99.90;;;;;;6732119;88;20228;-80
2021/03/18 20:38:51;;;;;;;20.55;8.85;;;4.50;99.90;;;;;;6677231;89;20231;-78
2021/03/18 20:48:51;;;;;;;20.12;8.80;;;4.70;99.90;;;;;;6724385;88;20739;-78
2021/03/18 20:58:52;;;;;;;21.77;10.80;;;4.60;99.90;;;;;;6727795;88;20225;-79
2021/03/18 21:08:53;;;;;;;21.83;9.80;;;4.50;99.90;;;;;;6728191;88;20215;-78
2021/03/18 21:18:54;;;;;;;25.62;10.65;;;4.50;99.90;;;;;;6728848;88;20588;-78
2021/03/18 21:28:54;;;;;;;31.70;11.68;;;4.40;99.90;;;;;;6727967;88;20201;-80
2021/03/18 21:38:55;;;;;;;25.20;11.68;;;4.30;99.90;;;;;;6731393;88;20728;-79
2021/03/18 21:48:56;;;;;;;26.23;11.45;;;4.40;99.90;;;;;;6729063;88;20182;-79
2021/03/18 21:58:57;;;;;;;32.58;12.50;;;4.40;99.90;;;;;;6725496;88;20196;-80
2021/03/18 22:08:59;;;;;;;29.70;13.48;;;4.50;99.90;;;;;;6723978;88;20192;-77
2021/03/18 22:19:00;;;;;;;28.20;13.85;;;4.50;99.90;;;;;;6728059;88;20185;-78
2021/03/18 22:29:01;;;;;;;22.92;11.65;;;4.60;99.90;;;;;;6729468;88;20207;-79
2021/03/18 22:39:02;;;;;;;13.68;7.25;;;4.40;99.90;;;;;;6724769;88;20560;-80
2021/03/18 22:49:03;;;;;;;13.60;7.53;;;4.20;99.90;;;;;;6728688;88;20196;-79
2021/03/18 22:59:12;;;;;;;15.70;7.87;;;4.00;99.90;;;;;;6726741;77;20203;-79
2021/03/18 23:09:12;;;;;;;15.70;8.45;;;4.00;99.90;;;;;;6742098;88;20212;-79
2021/03/18 23:19:25;;;;;;;15.50;7.47;;;3.80;99.90;;;;;;6752861;88;20696;-79
2021/03/18 23:29:26;;;;;;;17.10;7.95;;;3.90;99.90;;;;;;6732365;88;20822;-78
2021/03/18 23:39:27;;;;;;;14.07;8.23;;;3.90;99.90;;;;;;6735509;88;20197;-79
2021/03/18 23:49:28;;;;;;;18.37;8.48;;;3.90;99.90;;;;;;6729685;88;20193;-79
2021/03/18 23:59:28;;;;;;;16.52;9.40;;;3.80;99.90;;;;;;6733712;88;20668;-79
